sensor_id;sensor_type;location;lat;lon;timestamp;P1;durP1;ratioP1;P2;durP2;ratioP2
44276;SDS011;29973;43.742;1.236;2022-07-10T00:00:31;6.03;;;3.28;;
44276;SDS011;29973;43.742;1.236;2022-07-10T00:02:59;3.83;;;2.85;;
44276;SDS011;29973;43.742;1.236;2022-07-10T00:05:25;3.65;;;2.60;;
44276;SDS011;29973;43.742;1.236;2022-07-10T00:07:51;3.95;;;3.20;;
44276;SDS011;29973;43.742;1.236;2022-07-10T00:10:17;6.70;;;3.30;;
44276;SDS011;29973;43.742;1.236;2022-07-10T00:12:44;5.15;;;3.38;;
44276;SDS011;29973;43.742;1.236;2022-07-10T00:15:10;5.20;;;3.60;;
44276;SDS011;29973;43.742;1.236;2022-07-10T00:17:36;4.43;;;3.38;;
44276;SDS011;29973;43.742;1.236;2022-07-10T00:20:04;5.13;;;3.35;;
44276;SDS011;29973;43.742;1.236;2022-07-10T00:22:32;7.80;;;3.67;;
44276;SDS011;29973;43.742;1.236;2022-07-10T00:25:00;6.00;;;3.40;;
44276;SDS011;29973;43.742;1.236;2022-07-10T00:27:26;5.15;;;2.92;;
44276;SDS011;29973;43.742;1.236;2022-07-10T00:29:52;6.28;;;3.08;;
44276;SDS011;29973;43.742;1.236;2022-07-10T00:32:17;5.85;;;3.28;;
44276;SDS011;29973;43.742;1.236;2022-07-10T00:34:43;4.32;;;3.65;;
44276;SDS011;29973;43.742;1.236;2022-07-10T00:37:09;5.22;;;3.95;;
44276;SDS011;29973;43.742;1.236;2022-07-10T00:39:36;5.70;;;3.60;;
44276;SDS011;29973;43.742;1.236;2022-07-10T00:42:08;8.32;;;4.07;;
44276;SDS011;29973;43.742;1.236;2022-07-10T00:44:35;8.27;;;3.92;;
44276;SDS011;29973;43.742;1.236;2022-07-10T00:47:02;5.60;;;3.53;;
44276;SDS011;29973;43.742;1.236;2022-07-10T00:49:32;5.68;;;4.05;;
44276;SDS011;29973;43.742;1.236;2022-07-10T00:51:59;7.47;;;3.33;;
44276;SDS011;29973;43.742;1.236;2022-07-10T00:54:27;4.45;;;3.40;;
44276;SDS011;29973;43.742;1.236;2022-07-10T00:56:54;9.30;;;3.35;;
44276;SDS011;29973;43.742;1.236;2022-07-10T00:59:20;6.13;;;3.45;;
44276;SDS011;29973;43.742;1.236;2022-07-10T01:01:47;6.53;;;3.60;;
44276;SDS011;29973;43.742;1.236;2022-07-10T01:04:14;5.43;;;3.45;;
44276;SDS011;29973;43.742;1.236;2022-07-10T01:06:40;5.68;;;3.70;;
44276;SDS011;29973;43.742;1.236;2022-07-10T01:09:06;6.85;;;3.40;;
44276;SDS011;29973;43.742;1.236;2022-07-10T01:11:33;5.57;;;3.85;;
44276;SDS011;29973;43.742;1.236;2022-07-10T01:13:59;4.47;;;3.72;;
44276;SDS011;29973;43.742;1.236;2022-07-10T01:16:26;8.20;;;4.28;;
44276;SDS011;29973;43.742;1.236;2022-07-10T01:18:52;6.15;;;4.00;;
44276;SDS011;29973;43.742;1.236;2022-07-10T01:23:50;4.53;;;3.22;;
44276;SDS011;29973;43.742;1.236;2022-07-10T01:26:16;5.85;;;3.83;;
44276;SDS011;29973;43.742;1.236;2022-07-10T01:28:42;5.13;;;4.05;;
44276;SDS011;29973;43.742;1.236;2022-07-10T01:31:08;5.55;;;4.25;;
44276;SDS011;29973;43.742;1.236;2022-07-10T01:33:34;5.57;;;3.75;;
44276;SDS011;29973;43.742;1.236;2022-07-10T01:35:59;6.30;;;4.32;;
44276;SDS011;29973;43.742;1.236;2022-07-10T01:38:25;5.63;;;4.10;;
44276;SDS011;29973;43.742;1.236;2022-07-10T01:40:51;8.40;;;3.90;;
44276;SDS011;29973;43.742;1.236;2022-07-10T01:43:16;7.50;;;4.32;;
44276;SDS011;29973;43.742;1.236;2022-07-10T01:45:42;5.93;;;3.92;;
44276;SDS011;29973;43.742;1.236;2022-07-10T01:48:08;6.63;;;4.20;;
44276;SDS011;29973;43.742;1.236;2022-07-10T01:50:34;5.38;;;4.18;;
44276;SDS011;29973;43.742;1.236;2022-07-10T01:53:00;7.55;;;4.15;;
44276;SDS011;29973;43.742;1.236;2022-07-10T01:55:25;8.55;;;4.28;;
44276;SDS011;29973;43.742;1.236;2022-07-10T01:57:51;6.90;;;4.10;;
44276;SDS011;29973;43.742;1.236;2022-07-10T02:00:17;7.75;;;4.30;;
44276;SDS011;29973;43.742;1.236;2022-07-10T02:02:42;6.30;;;4.07;;
44276;SDS011;29973;43.742;1.236;2022-07-10T02:05:28;7.85;;;3.78;;
44276;SDS011;29973;43.742;1.236;2022-07-10T02:07:54;5.60;;;4.20;;
44276;SDS011;29973;43.742;1.236;2022-07-10T02:10:20;7.15;;;4.22;;
44276;SDS011;29973;43.742;1.236;2022-07-10T02:12:46;11.55;;;4.28;;
44276;SDS011;29973;43.742;1.236;2022-07-10T02:15:11;5.78;;;4.28;;
44276;SDS011;29973;43.742;1.236;2022-07-10T02:17:37;5.93;;;4.28;;
44276;SDS011;29973;43.742;1.236;2022-07-10T02:20:03;7.45;;;4.32;;
44276;SDS011;29973;43.742;1.236;2022-07-10T02:22:29;6.47;;;4.32;;
44276;SDS011;29973;43.742;1.236;2022-07-10T02:24:55;7.57;;;4.05;;
44276;SDS011;29973;43.742;1.236;2022-07-10T02:27:20;8.82;;;4.97;;
44276;SDS011;29973;43.742;1.236;2022-07-10T02:29:47;5.97;;;4.40;;
44276;SDS011;29973;43.742;1.236;2022-07-10T02:32:13;8.32;;;4.38;;
44276;SDS011;29973;43.742;1.236;2022-07-10T02:34:38;6.72;;;4.43;;
44276;SDS011;29973;43.742;1.236;2022-07-10T02:37:04;8.55;;;4.95;;
44276;SDS011;29973;43.742;1.236;2022-07-10T02:39:30;6.85;;;4.53;;
44276;SDS011;29973;43.742;1.236;2022-07-10T02:41:55;5.97;;;3.92;;
44276;SDS011;29973;43.742;1.236;2022-07-10T02:44:21;5.50;;;4.38;;
44276;SDS011;29973;43.742;1.236;2022-07-10T02:46:47;6.53;;;4.82;;
44276;SDS011;29973;43.742;1.236;2022-07-10T02:49:14;7.93;;;5.05;;
44276;SDS011;29973;43.742;1.236;2022-07-10T02:51:39;6.07;;;4.82;;
44276;SDS011;29973;43.742;1.236;2022-07-10T02:54:05;5.82;;;4.47;;
44276;SDS011;29973;43.742;1.236;2022-07-10T02:56:32;6.63;;;4.60;;
44276;SDS011;29973;43.742;1.236;2022-07-10T02:58:58;6.75;;;4.95;;
44276;SDS011;29973;43.742;1.236;2022-07-10T03:01:24;8.05;;;5.05;;
44276;SDS011;29973;43.742;1.236;2022-07-10T03:03:50;8.88;;;4.88;;
44276;SDS011;29973;43.742;1.236;2022-07-10T03:06:16;9.82;;;4.53;;
44276;SDS011;29973;43.742;1.236;2022-07-10T03:08:41;7.00;;;4.20;;
44276;SDS011;29973;43.742;1.236;2022-07-10T03:11:07;7.63;;;4.70;;
44276;SDS011;29973;43.742;1.236;2022-07-10T03:13:32;7.20;;;5.10;;
44276;SDS011;29973;43.742;1.236;2022-07-10T03:15:58;6.45;;;4.60;;
44276;SDS011;29973;43.742;1.236;2022-07-10T03:18:24;6.93;;;4.05;;
44276;SDS011;29973;43.742;1.236;2022-07-10T03:20:50;6.70;;;5.20;;
44276;SDS011;29973;43.742;1.236;2022-07-10T03:23:15;8.65;;;5.03;;
44276;SDS011;29973;43.742;1.236;2022-07-10T03:25:41;10.82;;;4.97;;
44276;SDS011;29973;43.742;1.236;2022-07-10T03:28:07;8.10;;;5.25;;
44276;SDS011;29973;43.742;1.236;2022-07-10T03:30:32;11.18;;;5.20;;
44276;SDS011;29973;43.742;1.236;2022-07-10T03:32:58;6.82;;;4.40;;
44276;SDS011;29973;43.742;1.236;2022-07-10T03:35:24;11.13;;;4.57;;
44276;SDS011;29973;43.742;1.236;2022-07-10T03:37:51;6.97;;;4.93;;
44276;SDS011;29973;43.742;1.236;2022-07-10T03:40:16;9.48;;;4.80;;
44276;SDS011;29973;43.742;1.236;2022-07-10T03:42:42;9.25;;;5.32;;
44276;SDS011;29973;43.742;1.236;2022-07-10T03:45:08;7.68;;;4.70;;
44276;SDS011;29973;43.742;1.236;2022-07-10T03:47:34;8.93;;;4.82;;
44276;SDS011;29973;43.742;1.236;2022-07-10T03:49:59;10.55;;;5.25;;
44276;SDS011;29973;43.742;1.236;2022-07-10T03:52:25;6.60;;;4.47;;
44276;SDS011;29973;43.742;1.236;2022-07-10T03:54:53;8.60;;;5.20;;
44276;SDS011;29973;43.742;1.236;2022-07-10T03:57:19;12.48;;;5.18;;
44276;SDS011;29973;43.742;1.236;2022-07-10T04:00:03;6.95;;;4.78;;
44276;SDS011;29973;43.742;1.236;2022-07-10T04:02:29;8.73;;;5.00;;
44276;SDS011;29973;43.742;1.236;2022-07-10T04:04:55;10.90;;;5.18;;
44276;SDS011;29973;43.742;1.236;2022-07-10T04:07:21;9.85;;;4.40;;
44276;SDS011;29973;43.742;1.236;2022-07-10T04:09:47;7.97;;;5.18;;
44276;SDS011;29973;43.742;1.236;2022-07-10T04:12:12;7.80;;;4.57;;
44276;SDS011;29973;43.742;1.236;2022-07-10T04:14:38;12.48;;;5.32;;
44276;SDS011;29973;43.742;1.236;2022-07-10T04:17:04;7.80;;;4.75;;
44276;SDS011;29973;43.742;1.236;2022-07-10T04:19:29;8.57;;;5.35;;
44276;SDS011;29973;43.742;1.236;2022-07-10T04:21:55;6.05;;;4.40;;
44276;SDS011;29973;43.742;1.236;2022-07-10T04:24:21;7.50;;;5.13;;
44276;SDS011;29973;43.742;1.236;2022-07-10T04:26:47;8.13;;;5.38;;
44276;SDS011;29973;43.742;1.236;2022-07-10T04:29:13;8.70;;;5.63;;
44276;SDS011;29973;43.742;1.236;2022-07-10T04:31:39;6.97;;;5.05;;
44276;SDS011;29973;43.742;1.236;2022-07-10T04:34:05;6.28;;;4.95;;
44276;SDS011;29973;43.742;1.236;2022-07-10T04:36:30;7.47;;;4.95;;
44276;SDS011;29973;43.742;1.236;2022-07-10T04:38:56;9.40;;;5.10;;
44276;SDS011;29973;43.742;1.236;2022-07-10T04:41:22;8.68;;;4.75;;
44276;SDS011;29973;43.742;1.236;2022-07-10T04:43:47;6.57;;;4.68;;
44276;SDS011;29973;43.742;1.236;2022-07-10T04:46:13;8.93;;;5.10;;
44276;SDS011;29973;43.742;1.236;2022-07-10T04:48:39;8.90;;;5.20;;
44276;SDS011;29973;43.742;1.236;2022-07-10T04:51:04;7.53;;;5.50;;
44276;SDS011;29973;43.742;1.236;2022-07-10T04:53:30;9.95;;;4.93;;
44276;SDS011;29973;43.742;1.236;2022-07-10T04:55:56;7.65;;;5.07;;
44276;SDS011;29973;43.742;1.236;2022-07-10T04:58:21;6.65;;;4.75;;
44276;SDS011;29973;43.742;1.236;2022-07-10T05:00:47;13.02;;;5.45;;
44276;SDS011;29973;43.742;1.236;2022-07-10T05:03:13;6.22;;;4.88;;
44276;SDS011;29973;43.742;1.236;2022-07-10T05:05:40;7.75;;;5.28;;
44276;SDS011;29973;43.742;1.236;2022-07-10T05:08:06;7.30;;;5.00;;
44276;SDS011;29973;43.742;1.236;2022-07-10T05:10:32;8.95;;;5.03;;
44276;SDS011;29973;43.742;1.236;2022-07-10T05:12:57;8.95;;;5.00;;
44276;SDS011;29973;43.742;1.236;2022-07-10T05:15:23;16.80;;;4.97;;
44276;SDS011;29973;43.742;1.236;2022-07-10T05:17:49;6.80;;;4.88;;
44276;SDS011;29973;43.742;1.236;2022-07-10T05:20:14;7.07;;;4.20;;
44276;SDS011;29973;43.742;1.236;2022-07-10T05:22:40;9.73;;;5.07;;
44276;SDS011;29973;43.742;1.236;2022-07-10T05:25:06;7.60;;;4.93;;
44276;SDS011;29973;43.742;1.236;2022-07-10T05:27:32;7.47;;;5.25;;
44276;SDS011;29973;43.742;1.236;2022-07-10T05:29:57;6.70;;;4.40;;
44276;SDS011;29973;43.742;1.236;2022-07-10T05:32:23;7.75;;;5.18;;
44276;SDS011;29973;43.742;1.236;2022-07-10T05:34:50;9.07;;;5.03;;
44276;SDS011;29973;43.742;1.236;2022-07-10T05:37:16;7.72;;;4.90;;
44276;SDS011;29973;43.742;1.236;2022-07-10T05:39:43;7.05;;;4.57;;
44276;SDS011;29973;43.742;1.236;2022-07-10T05:42:08;10.20;;;4.13;;
44276;SDS011;29973;43.742;1.236;2022-07-10T05:44:34;8.63;;;4.57;;
44276;SDS011;29973;43.742;1.236;2022-07-10T05:47:00;7.53;;;5.25;;
44276;SDS011;29973;43.742;1.236;2022-07-10T05:49:25;7.28;;;4.43;;
44276;SDS011;29973;43.742;1.236;2022-07-10T05:51:51;7.80;;;5.45;;
44276;SDS011;29973;43.742;1.236;2022-07-10T05:54:17;7.55;;;4.70;;
44276;SDS011;29973;43.742;1.236;2022-07-10T05:56:42;7.13;;;4.80;;
44276;SDS011;29973;43.742;1.236;2022-07-10T05:59:10;7.47;;;4.78;;
44276;SDS011;29973;43.742;1.236;2022-07-10T06:01:35;6.97;;;4.88;;
44276;SDS011;29973;43.742;1.236;2022-07-10T06:04:01;7.97;;;4.72;;
44276;SDS011;29973;43.742;1.236;2022-07-10T06:06:27;7.45;;;4.63;;
44276;SDS011;29973;43.742;1.236;2022-07-10T06:08:52;7.57;;;4.40;;
44276;SDS011;29973;43.742;1.236;2022-07-10T06:11:18;6.78;;;4.50;;
44276;SDS011;29973;43.742;1.236;2022-07-10T06:13:44;8.52;;;4.40;;
44276;SDS011;29973;43.742;1.236;2022-07-10T06:16:09;8.10;;;4.53;;
44276;SDS011;29973;43.742;1.236;2022-07-10T06:18:35;8.40;;;4.90;;
44276;SDS011;29973;43.742;1.236;2022-07-10T06:21:01;7.30;;;4.30;;
44276;SDS011;29973;43.742;1.236;2022-07-10T06:23:27;10.63;;;4.85;;
44276;SDS011;29973;43.742;1.236;2022-07-10T06:25:52;8.63;;;4.75;;
44276;SDS011;29973;43.742;1.236;2022-07-10T06:28:18;7.20;;;4.85;;
44276;SDS011;29973;43.742;1.236;2022-07-10T06:30:44;7.72;;;4.28;;
44276;SDS011;29973;43.742;1.236;2022-07-10T06:33:13;6.32;;;4.55;;
44276;SDS011;29973;43.742;1.236;2022-07-10T06:35:39;12.20;;;4.80;;
44276;SDS011;29973;43.742;1.236;2022-07-10T06:38:04;12.00;;;3.97;;
44276;SDS011;29973;43.742;1.236;2022-07-10T06:40:30;11.30;;;4.90;;
44276;SDS011;29973;43.742;1.236;2022-07-10T06:43:00;6.77;;;4.00;;
44276;SDS011;29973;43.742;1.236;2022-07-10T06:45:26;6.97;;;3.70;;
44276;SDS011;29973;43.742;1.236;2022-07-10T06:47:52;9.85;;;4.78;;
44276;SDS011;29973;43.742;1.236;2022-07-10T06:50:21;6.88;;;4.15;;
44276;SDS011;29973;43.742;1.236;2022-07-10T06:52:50;8.80;;;3.55;;
44276;SDS011;29973;43.742;1.236;2022-07-10T06:55:19;7.97;;;3.60;;
44276;SDS011;29973;43.742;1.236;2022-07-10T06:57:45;6.22;;;3.92;;
44276;SDS011;29973;43.742;1.236;2022-07-10T07:00:11;5.25;;;3.75;;
44276;SDS011;29973;43.742;1.236;2022-07-10T07:02:37;9.93;;;4.35;;
44276;SDS011;29973;43.742;1.236;2022-07-10T07:05:03;7.28;;;4.10;;
44276;SDS011;29973;43.742;1.236;2022-07-10T07:07:30;6.28;;;3.35;;
44276;SDS011;29973;43.742;1.236;2022-07-10T07:09:55;6.97;;;4.00;;
44276;SDS011;29973;43.742;1.236;2022-07-10T07:12:21;7.93;;;4.00;;
44276;SDS011;29973;43.742;1.236;2022-07-10T07:14:47;5.78;;;3.90;;
44276;SDS011;29973;43.742;1.236;2022-07-10T07:17:13;7.05;;;4.00;;
44276;SDS011;29973;43.742;1.236;2022-07-10T07:19:46;5.70;;;3.28;;
44276;SDS011;29973;43.742;1.236;2022-07-10T07:22:30;7.82;;;4.35;;
44276;SDS011;29973;43.742;1.236;2022-07-10T07:25:14;9.68;;;4.45;;
44276;SDS011;29973;43.742;1.236;2022-07-10T07:27:39;5.90;;;3.75;;
44276;SDS011;29973;43.742;1.236;2022-07-10T07:30:07;9.02;;;4.43;;
44276;SDS011;29973;43.742;1.236;2022-07-10T07:32:37;7.13;;;3.60;;
44276;SDS011;29973;43.742;1.236;2022-07-10T07:35:04;7.30;;;4.05;;
44276;SDS011;29973;43.742;1.236;2022-07-10T07:37:49;7.75;;;3.70;;
44276;SDS011;29973;43.742;1.236;2022-07-10T07:40:18;3.90;;;3.47;;
44276;SDS011;29973;43.742;1.236;2022-07-10T07:42:46;7.43;;;3.70;;
44276;SDS011;29973;43.742;1.236;2022-07-10T07:45:15;6.07;;;3.53;;
44276;SDS011;29973;43.742;1.236;2022-07-10T07:47:48;5.72;;;3.47;;
44276;SDS011;29973;43.742;1.236;2022-07-10T07:50:19;7.78;;;3.55;;
44276;SDS011;29973;43.742;1.236;2022-07-10T07:52:46;3.78;;;3.10;;
44276;SDS011;29973;43.742;1.236;2022-07-10T07:55:13;5.38;;;3.70;;
44276;SDS011;29973;43.742;1.236;2022-07-10T07:57:40;4.53;;;3.20;;
44276;SDS011;29973;43.742;1.236;2022-07-10T08:00:07;4.95;;;2.97;;
44276;SDS011;29973;43.742;1.236;2022-07-10T08:02:34;6.22;;;2.85;;
44276;SDS011;29973;43.742;1.236;2022-07-10T08:05:00;5.20;;;3.10;;
44276;SDS011;29973;43.742;1.236;2022-07-10T08:07:33;5.30;;;3.38;;
44276;SDS011;29973;43.742;1.236;2022-07-10T08:10:10;5.75;;;2.75;;
44276;SDS011;29973;43.742;1.236;2022-07-10T08:12:38;3.40;;;3.08;;
44276;SDS011;29973;43.742;1.236;2022-07-10T08:15:05;4.05;;;3.13;;
44276;SDS011;29973;43.742;1.236;2022-07-10T08:17:35;4.63;;;3.35;;
44276;SDS011;29973;43.742;1.236;2022-07-10T08:20:02;2.97;;;2.53;;
44276;SDS011;29973;43.742;1.236;2022-07-10T08:22:28;3.63;;;2.65;;
44276;SDS011;29973;43.742;1.236;2022-07-10T08:24:54;5.40;;;3.25;;
44276;SDS011;29973;43.742;1.236;2022-07-10T08:27:21;4.38;;;3.28;;
44276;SDS011;29973;43.742;1.236;2022-07-10T08:29:47;7.45;;;3.10;;
44276;SDS011;29973;43.742;1.236;2022-07-10T08:32:13;3.92;;;2.72;;
44276;SDS011;29973;43.742;1.236;2022-07-10T08:34:38;3.25;;;2.65;;
44276;SDS011;29973;43.742;1.236;2022-07-10T08:37:04;5.53;;;2.97;;
44276;SDS011;29973;43.742;1.236;2022-07-10T08:39:32;4.28;;;2.97;;
44276;SDS011;29973;43.742;1.236;2022-07-10T08:41:58;5.13;;;2.95;;
44276;SDS011;29973;43.742;1.236;2022-07-10T08:44:24;3.95;;;2.50;;
44276;SDS011;29973;43.742;1.236;2022-07-10T08:46:51;3.60;;;2.72;;
44276;SDS011;29973;43.742;1.236;2022-07-10T08:49:17;4.82;;;2.90;;
44276;SDS011;29973;43.742;1.236;2022-07-10T08:51:47;5.65;;;3.03;;
44276;SDS011;29973;43.742;1.236;2022-07-10T08:54:19;3.88;;;3.22;;
44276;SDS011;29973;43.742;1.236;2022-07-10T08:56:45;2.60;;;2.25;;
44276;SDS011;29973;43.742;1.236;2022-07-10T08:59:12;5.13;;;2.33;;
44276;SDS011;29973;43.742;1.236;2022-07-10T09:01:40;5.70;;;3.10;;
44276;SDS011;29973;43.742;1.236;2022-07-10T09:04:05;7.05;;;3.00;;
44276;SDS011;29973;43.742;1.236;2022-07-10T09:06:31;3.47;;;3.10;;
44276;SDS011;29973;43.742;1.236;2022-07-10T09:09:04;4.05;;;2.80;;
44276;SDS011;29973;43.742;1.236;2022-07-10T09:11:31;6.68;;;2.88;;
44276;SDS011;29973;43.742;1.236;2022-07-10T09:13:58;5.30;;;3.10;;
44276;SDS011;29973;43.742;1.236;2022-07-10T09:16:28;4.75;;;2.60;;
44276;SDS011;29973;43.742;1.236;2022-07-10T09:18:54;2.85;;;2.50;;
44276;SDS011;29973;43.742;1.236;2022-07-10T09:21:21;3.13;;;2.70;;
44276;SDS011;29973;43.742;1.236;2022-07-10T09:23:48;5.38;;;2.55;;
44276;SDS011;29973;43.742;1.236;2022-07-10T09:26:14;5.85;;;2.45;;
44276;SDS011;29973;43.742;1.236;2022-07-10T09:28:40;3.38;;;2.38;;
44276;SDS011;29973;43.742;1.236;2022-07-10T09:31:06;3.70;;;2.53;;
44276;SDS011;29973;43.742;1.236;2022-07-10T09:33:32;3.08;;;2.45;;
44276;SDS011;29973;43.742;1.236;2022-07-10T09:36:06;3.60;;;2.50;;
44276;SDS011;29973;43.742;1.236;2022-07-10T09:43:53;4.53;;;2.53;;
44276;SDS011;29973;43.742;1.236;2022-07-10T09:46:36;6.47;;;2.58;;
44276;SDS011;29973;43.742;1.236;2022-07-10T09:51:39;4.15;;;2.45;;
44276;SDS011;29973;43.742;1.236;2022-07-10T09:54:07;5.18;;;2.28;;
44276;SDS011;29973;43.742;1.236;2022-07-10T09:56:44;2.83;;;2.47;;
44276;SDS011;29973;43.742;1.236;2022-07-10T10:01:42;3.17;;;2.13;;
44276;SDS011;29973;43.742;1.236;2022-07-10T10:04:13;7.60;;;2.22;;
44276;SDS011;29973;43.742;1.236;2022-07-10T10:06:40;6.47;;;2.25;;
44276;SDS011;29973;43.742;1.236;2022-07-10T10:09:08;6.10;;;2.40;;
44276;SDS011;29973;43.742;1.236;2022-07-10T10:12:05;5.75;;;1.77;;
44276;SDS011;29973;43.742;1.236;2022-07-10T10:14:35;3.53;;;1.95;;
44276;SDS011;29973;43.742;1.236;2022-07-10T10:17:03;3.72;;;2.00;;
44276;SDS011;29973;43.742;1.236;2022-07-10T10:19:31;4.63;;;2.40;;
44276;SDS011;29973;43.742;1.236;2022-07-10T10:22:18;5.72;;;2.17;;
44276;SDS011;29973;43.742;1.236;2022-07-10T10:24:44;7.60;;;2.20;;
44276;SDS011;29973;43.742;1.236;2022-07-10T10:27:11;7.25;;;1.98;;
44276;SDS011;29973;43.742;1.236;2022-07-10T10:29:38;3.65;;;1.60;;
44276;SDS011;29973;43.742;1.236;2022-07-10T10:32:06;3.53;;;1.70;;
44276;SDS011;29973;43.742;1.236;2022-07-10T10:34:43;3.28;;;1.77;;
44276;SDS011;29973;43.742;1.236;2022-07-10T10:39:54;3.40;;;1.83;;
44276;SDS011;29973;43.742;1.236;2022-07-10T10:45:24;2.90;;;1.75;;
44276;SDS011;29973;43.742;1.236;2022-07-10T10:48:01;2.60;;;2.05;;
44276;SDS011;29973;43.742;1.236;2022-07-10T10:50:48;5.55;;;2.00;;
44276;SDS011;29973;43.742;1.236;2022-07-10T10:53:20;3.08;;;1.58;;
44276;SDS011;29973;43.742;1.236;2022-07-10T11:01:24;2.88;;;1.52;;
44276;SDS011;29973;43.742;1.236;2022-07-10T11:06:42;2.30;;;1.67;;
44276;SDS011;29973;43.742;1.236;2022-07-10T11:09:22;5.40;;;1.75;;
44276;SDS011;29973;43.742;1.236;2022-07-10T11:14:45;2.75;;;1.83;;
44276;SDS011;29973;43.742;1.236;2022-07-10T11:17:12;3.05;;;1.80;;
44276;SDS011;29973;43.742;1.236;2022-07-10T11:19:38;3.08;;;1.83;;
44276;SDS011;29973;43.742;1.236;2022-07-10T11:22:11;2.78;;;1.83;;
44276;SDS011;29973;43.742;1.236;2022-07-10T11:25:03;3.42;;;1.63;;
44276;SDS011;29973;43.742;1.236;2022-07-10T11:28:05;3.47;;;1.70;;
44276;SDS011;29973;43.742;1.236;2022-07-10T11:30:52;5.15;;;2.30;;
44276;SDS011;29973;43.742;1.236;2022-07-10T11:33:20;2.75;;;1.58;;
44276;SDS011;29973;43.742;1.236;2022-07-10T11:35:48;2.22;;;1.67;;
44276;SDS011;29973;43.742;1.236;2022-07-10T11:38:33;2.47;;;1.73;;
44276;SDS011;29973;43.742;1.236;2022-07-10T11:41:00;3.08;;;1.70;;
44276;SDS011;29973;43.742;1.236;2022-07-10T11:43:26;4.68;;;1.80;;
44276;SDS011;29973;43.742;1.236;2022-07-10T11:45:52;1.58;;;1.45;;
44276;SDS011;29973;43.742;1.236;2022-07-10T11:48:24;1.92;;;1.50;;
44276;SDS011;29973;43.742;1.236;2022-07-10T11:50:50;2.03;;;1.55;;
44276;SDS011;29973;43.742;1.236;2022-07-10T11:53:26;3.20;;;1.70;;
44276;SDS011;29973;43.742;1.236;2022-07-10T11:55:52;3.75;;;1.40;;
44276;SDS011;29973;43.742;1.236;2022-07-10T11:58:18;2.10;;;1.48;;
44276;SDS011;29973;43.742;1.236;2022-07-10T12:01:18;3.40;;;1.55;;
44276;SDS011;29973;43.742;1.236;2022-07-10T12:03:39;3.50;;;1.55;;
44276;SDS011;29973;43.742;1.236;2022-07-10T12:06:05;2.47;;;1.55;;
44276;SDS011;29973;43.742;1.236;2022-07-10T12:08:47;2.38;;;1.52;;
44276;SDS011;29973;43.742;1.236;2022-07-10T12:11:17;2.97;;;1.60;;
44276;SDS011;29973;43.742;1.236;2022-07-10T12:13:45;4.35;;;1.73;;
44276;SDS011;29973;43.742;1.236;2022-07-10T12:16:12;1.95;;;1.42;;
44276;SDS011;29973;43.742;1.236;2022-07-10T12:18:38;2.88;;;1.60;;
44276;SDS011;29973;43.742;1.236;2022-07-10T12:21:07;2.95;;;1.70;;
44276;SDS011;29973;43.742;1.236;2022-07-10T12:23:36;3.05;;;1.80;;
44276;SDS011;29973;43.742;1.236;2022-07-10T12:26:07;2.15;;;1.50;;
44276;SDS011;29973;43.742;1.236;2022-07-10T12:28:47;2.33;;;1.42;;
44276;SDS011;29973;43.742;1.236;2022-07-10T12:31:21;2.60;;;1.40;;
44276;SDS011;29973;43.742;1.236;2022-07-10T12:33:53;2.03;;;1.30;;
44276;SDS011;29973;43.742;1.236;2022-07-10T12:38:55;2.25;;;1.60;;
44276;SDS011;29973;43.742;1.236;2022-07-10T12:41:23;2.10;;;1.48;;
44276;SDS011;29973;43.742;1.236;2022-07-10T12:43:50;4.45;;;1.60;;
44276;SDS011;29973;43.742;1.236;2022-07-10T12:46:23;2.97;;;1.50;;
44276;SDS011;29973;43.742;1.236;2022-07-10T12:51:28;1.75;;;1.50;;
44276;SDS011;29973;43.742;1.236;2022-07-10T12:53:55;2.75;;;1.45;;
44276;SDS011;29973;43.742;1.236;2022-07-10T12:56:28;1.85;;;1.10;;
44276;SDS011;29973;43.742;1.236;2022-07-10T12:58:59;6.05;;;1.58;;
44276;SDS011;29973;43.742;1.236;2022-07-10T13:01:26;1.38;;;1.27;;
44276;SDS011;29973;43.742;1.236;2022-07-10T13:03:59;2.88;;;1.60;;
44276;SDS011;29973;43.742;1.236;2022-07-10T13:06:30;2.33;;;1.60;;
44276;SDS011;29973;43.742;1.236;2022-07-10T13:08:57;2.17;;;1.70;;
44276;SDS011;29973;43.742;1.236;2022-07-10T13:11:23;2.45;;;1.63;;
44276;SDS011;29973;43.742;1.236;2022-07-10T13:13:49;2.65;;;1.45;;
44276;SDS011;29973;43.742;1.236;2022-07-10T13:16:15;2.33;;;1.63;;
44276;SDS011;29973;43.742;1.236;2022-07-10T13:18:44;3.13;;;1.38;;
44276;SDS011;29973;43.742;1.236;2022-07-10T13:21:10;1.55;;;1.08;;
44276;SDS011;29973;43.742;1.236;2022-07-10T13:23:39;1.80;;;1.30;;
44276;SDS011;29973;43.742;1.236;2022-07-10T13:26:05;2.83;;;1.33;;
44276;SDS011;29973;43.742;1.236;2022-07-10T13:28:35;2.28;;;1.42;;
44276;SDS011;29973;43.742;1.236;2022-07-10T13:31:00;1.70;;;1.27;;
44276;SDS011;29973;43.742;1.236;2022-07-10T13:33:27;1.83;;;1.30;;
44276;SDS011;29973;43.742;1.236;2022-07-10T13:35:53;2.65;;;1.40;;
44276;SDS011;29973;43.742;1.236;2022-07-10T13:38:19;1.77;;;1.20;;
44276;SDS011;29973;43.742;1.236;2022-07-10T13:40:45;1.30;;;1.00;;
44276;SDS011;29973;43.742;1.236;2022-07-10T13:43:12;4.40;;;1.15;;
44276;SDS011;29973;43.742;1.236;2022-07-10T13:45:39;2.30;;;1.15;;
44276;SDS011;29973;43.742;1.236;2022-07-10T13:48:13;2.25;;;1.30;;
44276;SDS011;29973;43.742;1.236;2022-07-10T13:50:41;1.65;;;1.02;;
44276;SDS011;29973;43.742;1.236;2022-07-10T13:53:07;1.77;;;1.30;;
44276;SDS011;29973;43.742;1.236;2022-07-10T13:55:34;3.42;;;1.30;;
44276;SDS011;29973;43.742;1.236;2022-07-10T13:58:01;1.70;;;1.10;;
44276;SDS011;29973;43.742;1.236;2022-07-10T14:00:26;1.58;;;1.27;;
44276;SDS011;29973;43.742;1.236;2022-07-10T14:02:52;1.83;;;1.10;;
44276;SDS011;29973;43.742;1.236;2022-07-10T14:05:21;3.25;;;1.40;;
44276;SDS011;29973;43.742;1.236;2022-07-10T14:07:47;3.78;;;1.23;;
44276;SDS011;29973;43.742;1.236;2022-07-10T14:10:12;3.22;;;1.45;;
44276;SDS011;29973;43.742;1.236;2022-07-10T14:12:38;2.55;;;0.90;;
44276;SDS011;29973;43.742;1.236;2022-07-10T14:15:04;1.95;;;0.98;;
44276;SDS011;29973;43.742;1.236;2022-07-10T14:17:30;3.55;;;1.10;;
44276;SDS011;29973;43.742;1.236;2022-07-10T14:19:56;1.27;;;1.10;;
44276;SDS011;29973;43.742;1.236;2022-07-10T14:22:21;1.33;;;1.10;;
44276;SDS011;29973;43.742;1.236;2022-07-10T14:24:48;1.48;;;0.90;;
44276;SDS011;29973;43.742;1.236;2022-07-10T14:27:14;1.90;;;1.20;;
44276;SDS011;29973;43.742;1.236;2022-07-10T14:29:39;1.00;;;0.85;;
44276;SDS011;29973;43.742;1.236;2022-07-10T14:32:05;1.38;;;0.85;;
44276;SDS011;29973;43.742;1.236;2022-07-10T14:34:31;1.77;;;1.02;;
44276;SDS011;29973;43.742;1.236;2022-07-10T14:36:57;1.63;;;0.80;;
44276;SDS011;29973;43.742;1.236;2022-07-10T14:39:23;1.88;;;0.90;;
44276;SDS011;29973;43.742;1.236;2022-07-10T14:41:49;1.30;;;0.90;;
44276;SDS011;29973;43.742;1.236;2022-07-10T14:44:14;2.13;;;0.82;;
44276;SDS011;29973;43.742;1.236;2022-07-10T14:46:40;1.88;;;0.90;;
44276;SDS011;29973;43.742;1.236;2022-07-10T14:49:07;4.88;;;0.90;;
44276;SDS011;29973;43.742;1.236;2022-07-10T14:51:33;3.53;;;1.10;;
44276;SDS011;29973;43.742;1.236;2022-07-10T14:54:00;1.48;;;0.90;;
44276;SDS011;29973;43.742;1.236;2022-07-10T14:56:26;3.35;;;0.70;;
44276;SDS011;29973;43.742;1.236;2022-07-10T14:58:52;1.00;;;0.80;;
44276;SDS011;29973;43.742;1.236;2022-07-10T15:01:18;2.25;;;0.70;;
44276;SDS011;29973;43.742;1.236;2022-07-10T15:03:43;1.35;;;0.80;;
44276;SDS011;29973;43.742;1.236;2022-07-10T15:06:09;1.65;;;0.82;;
44276;SDS011;29973;43.742;1.236;2022-07-10T15:08:36;2.22;;;0.80;;
44276;SDS011;29973;43.742;1.236;2022-07-10T15:11:02;2.65;;;0.70;;
44276;SDS011;29973;43.742;1.236;2022-07-10T15:13:29;1.67;;;0.70;;
44276;SDS011;29973;43.742;1.236;2022-07-10T15:15:55;0.50;;;0.50;;
44276;SDS011;29973;43.742;1.236;2022-07-10T15:18:21;1.85;;;0.80;;
44276;SDS011;29973;43.742;1.236;2022-07-10T15:20:47;2.40;;;0.60;;
44276;SDS011;29973;43.742;1.236;2022-07-10T15:23:13;1.40;;;0.80;;
44276;SDS011;29973;43.742;1.236;2022-07-10T15:25:39;1.27;;;0.68;;